KBJI/BJI METAR and TAF weather

Enter ICAO airport designator
Station Type Date Time Source
KBJI METAR 2019/09/20 20:17 UTC NOAA

KBJI 202017Z AUTO 14016G20KT 10SM CLR 26/20 A2990 RMK AO2 LTG DSNT N T02590202


Station Type Date Time Source
KBJI Decoded METAR 2019/09/20 20:17 UTC NOAA

Bemidji, MN, United States (KBJI) 47-30N 094-56W 420M
Sep 20, 2019 - 04:17 PM EDT / 2019.09.20 2017 UTC
Wind: from the SE (140 degrees) at 18 MPH (16 KT) gusting to 23 MPH (20 KT):0
Visibility: 10 mile(s):0
Sky conditions: clear
Weather: Lightning observed
Temperature: 78.6 F (25.9 C)
Dew Point: 68.4 F (20.2 C)
Relative Humidity: 70%
Pressure (altimeter): 29.9 in. Hg (1012 hPa)
ob: KBJI 202017Z AUTO 14016G20KT 10SM CLR 26/20 A2990 RMK AO2 LTG DSNT N T02590202
cycle: 20

Station Type Date Time Source
KBJI TAF 2019/09/20 18:45 UTC NOAA

TAF KBJI 201743Z 2018/2118 15013G19KT P6SM BKN120 WS020/19040KT
FM210900 17013KT P6SM VCTS BKN050CB WS020/19040KT
FM211200 18014KT 6SM TSRA BR OVC015CB
FM211700 19013G21KT P6SM VCSH BKN011

Example: see airport list